Time;durP1;ratioP1;P1;durP2;ratioP2;P2;SDS_P1;SDS_P2;PMS_P1;PMS_P2;Temp;Humidity;BMP_temperature;BMP_pressure;BME280_temperature;BME280_humidity;BME280_pressure;Samples;Min_cycle;Max_cycle;Signal;HPM_P1;HPM_P2
2021/11/10 05:02:40;;;;;;;22.83;20.43;;;3.00;99.90;;;;;;6072996;22;1238990;-69
2021/11/10 05:05:08;;;;;;;31.77;21.67;;;3.00;99.90;;;;;;6181459;23;20169;-69
2021/11/10 05:07:35;;;;;;;29.83;20.30;;;3.00;99.90;;;;;;6168354;23;20948;-66
2021/11/10 05:10:02;;;;;;;27.60;21.60;;;3.10;99.90;;;;;;6175108;23;20424;-65
2021/11/10 05:12:29;;;;;;;22.90;20.50;;;3.10;99.90;;;;;;6148934;23;20433;-65
2021/11/10 05:14:56;;;;;;;25.80;21.00;;;3.10;99.90;;;;;;6150878;23;20437;-64
2021/11/10 05:17:23;;;;;;;25.90;20.20;;;3.10;99.90;;;;;;6150272;23;20417;-65
2021/11/10 05:19:52;;;;;;;24.93;20.33;;;3.20;99.90;;;;;;6152110;23;20413;-65
2021/11/10 05:22:19;;;;;;;26.30;19.93;;;3.20;99.90;;;;;;6153038;23;20495;-65
2021/11/10 05:24:46;;;;;;;28.97;19.87;;;3.20;99.90;;;;;;6152546;23;20509;-64
2021/11/10 05:27:13;;;;;;;25.30;20.57;;;3.20;99.90;;;;;;6152369;23;20492;-64
2021/11/10 05:29:40;;;;;;;21.43;19.17;;;3.30;99.90;;;;;;6152664;23;20400;-64
2021/11/10 05:32:07;;;;;;;23.00;19.50;;;3.30;99.90;;;;;;6148454;23;20500;-65
2021/11/10 05:34:35;;;;;;;21.70;19.40;;;3.30;99.90;;;;;;6143850;23;20405;-65
2021/11/10 05:37:03;;;;;;;21.10;18.60;;;3.20;99.90;;;;;;6144551;23;20447;-66
2021/11/10 05:39:30;;;;;;;22.30;18.80;;;3.20;99.90;;;;;;6144477;23;20420;-64
2021/11/10 05:41:58;;;;;;;22.67;18.90;;;3.10;99.90;;;;;;6143187;23;20445;-66
2021/11/10 05:44:25;;;;;;;25.00;20.20;;;3.00;99.90;;;;;;6134145;23;20476;-65
2021/11/10 05:46:51;;;;;;;21.63;19.03;;;3.00;99.90;;;;;;6129758;23;20911;-65
2021/11/10 05:49:18;;;;;;;25.20;19.53;;;3.00;99.90;;;;;;6129960;23;20417;-65
2021/11/10 05:51:45;;;;;;;23.73;19.67;;;3.00;99.90;;;;;;6129587;23;20796;-65
2021/11/10 05:54:13;;;;;;;23.70;19.27;;;2.90;99.90;;;;;;6130780;23;20423;-65
2021/11/10 05:56:42;;;;;;;24.47;21.10;;;2.90;99.90;;;;;;6131932;23;20418;-64
2021/11/10 05:59:09;;;;;;;21.43;19.13;;;2.90;99.90;;;;;;6129821;23;20722;-64
2021/11/10 06:01:37;;;;;;;21.03;18.83;;;2.80;99.90;;;;;;6129197;23;20501;-64
2021/11/10 06:04:04;;;;;;;22.53;19.63;;;2.80;99.90;;;;;;6130298;23;20545;-63
2021/11/10 06:06:30;;;;;;;21.50;18.77;;;2.80;99.90;;;;;;6129808;23;20418;-64
2021/11/10 06:08:57;;;;;;;20.07;17.97;;;2.80;99.90;;;;;;6139306;23;20417;-64
2021/11/10 06:11:25;;;;;;;20.90;18.77;;;2.90;99.90;;;;;;6151303;23;20440;-64
2021/11/10 06:13:52;;;;;;;23.50;18.60;;;2.80;99.90;;;;;;6132411;23;20414;-64
2021/11/10 06:16:19;;;;;;;22.77;19.90;;;2.80;99.90;;;;;;6129748;23;20416;-64
2021/11/10 06:18:46;;;;;;;23.47;21.07;;;2.80;99.90;;;;;;6130167;23;20404;-64
2021/11/10 06:21:13;;;;;;;29.73;21.40;;;2.70;99.90;;;;;;6131626;23;20500;-64
2021/11/10 06:23:40;;;;;;;28.10;22.17;;;2.70;99.90;;;;;;6150181;23;20418;-64
2021/11/10 06:26:07;;;;;;;26.60;22.10;;;2.70;99.90;;;;;;6151147;23;20414;-64
2021/11/10 06:28:35;;;;;;;28.97;23.37;;;2.80;99.90;;;;;;6151038;23;20412;-64
2021/11/10 06:31:01;;;;;;;28.93;23.00;;;2.80;99.90;;;;;;6151445;23;20440;-64
2021/11/10 06:33:29;;;;;;;25.20;21.70;;;2.80;99.90;;;;;;6150175;23;20416;-64
2021/11/10 06:35:56;;;;;;;25.07;21.43;;;2.90;99.90;;;;;;6148588;23;20442;-65
2021/11/10 06:38:22;;;;;;;29.23;22.97;;;2.90;99.90;;;;;;6150247;23;20419;-64
2021/11/10 06:40:49;;;;;;;28.13;23.00;;;3.00;99.90;;;;;;6150052;23;20444;-65
2021/11/10 06:43:16;;;;;;;31.40;23.13;;;3.00;99.90;;;;;;6149650;23;20422;-63
2021/11/10 06:45:44;;;;;;;31.80;23.27;;;3.00;99.90;;;;;;6149084;23;20414;-64
2021/11/10 06:48:11;;;;;;;30.47;23.93;;;3.00;99.90;;;;;;6149455;23;20417;-64
2021/11/10 06:50:39;;;;;;;33.43;24.00;;;3.00;99.90;;;;;;6141704;23;20434;-64
2021/11/10 06:53:06;;;;;;;25.20;22.43;;;3.00;99.90;;;;;;6128788;23;20408;-64
2021/11/10 06:55:33;;;;;;;26.90;22.93;;;3.00;99.90;;;;;;6128338;23;20425;-63
2021/11/10 06:58:00;;;;;;;29.80;24.67;;;3.00;99.90;;;;;;6129230;23;20417;-64
2021/11/10 07:00:26;;;;;;;29.90;25.13;;;3.00;99.90;;;;;;6128343;23;20786;-64
2021/11/10 07:02:54;;;;;;;30.50;23.00;;;3.10;99.90;;;;;;6128316;23;20426;-65
2021/11/10 07:05:21;;;;;;;24.87;21.63;;;3.20;99.90;;;;;;6134564;23;20413;-63
2021/11/10 07:07:48;;;;;;;25.20;21.60;;;3.30;99.90;;;;;;6135816;23;20417;-65
2021/11/10 07:10:15;;;;;;;22.90;20.40;;;3.50;99.90;;;;;;6132822;23;20417;-64
2021/11/10 07:12:41;;;;;;;24.47;18.43;;;3.50;99.90;;;;;;6132541;23;20413;-64
2021/11/10 07:15:09;;;;;;;20.67;18.47;;;3.70;99.90;;;;;;6138899;23;20417;-65
2021/11/10 07:17:36;;;;;;;22.60;19.10;;;4.00;99.90;;;;;;6139488;23;20417;-65
2021/11/10 07:20:05;;;;;;;22.83;20.50;;;4.20;99.90;;;;;;6136530;23;20468;-65
2021/11/10 07:22:32;;;;;;;24.20;19.53;;;4.40;99.90;;;;;;6136921;23;20446;-64
2021/11/10 07:24:59;;;;;;;23.10;20.73;;;4.60;99.90;;;;;;6131002;23;20417;-64
2021/11/10 07:27:26;;;;;;;27.90;20.93;;;4.80;99.90;;;;;;6140370;23;20414;-64
2021/11/10 07:29:52;;;;;;;20.17;18.07;;;5.00;99.90;;;;;;6144719;23;20414;-65
2021/11/10 07:32:19;;;;;;;21.90;17.63;;;5.40;99.90;;;;;;6134169;23;20965;-65
2021/11/10 07:34:46;;;;;;;18.10;15.90;;;5.90;99.90;;;;;;6148376;23;20410;-64
2021/11/10 07:37:14;;;;;;;17.43;15.63;;;6.40;99.90;;;;;;6149865;23;20417;-64
2021/11/10 07:39:43;;;;;;;16.30;13.77;;;7.00;99.90;;;;;;6151672;23;20414;-64
2021/11/10 07:42:11;;;;;;;15.83;13.23;;;7.50;99.90;;;;;;6152323;23;20448;-64
2021/11/10 07:44:39;;;;;;;14.57;12.97;;;7.90;99.90;;;;;;6150162;23;20464;-64
2021/11/10 07:47:09;;;;;;;15.13;13.53;;;8.20;99.90;;;;;;6150197;23;20416;-64
2021/11/10 07:49:36;;;;;;;17.47;14.30;;;8.20;99.90;;;;;;6149832;23;20409;-64
2021/11/10 07:52:03;;;;;;;22.43;14.97;;;8.40;99.90;;;;;;6134020;23;20974;-64
2021/11/10 07:54:31;;;;;;;15.73;13.20;;;8.40;99.90;;;;;;6129237;23;20417;-65
2021/11/10 07:56:58;;;;;;;17.27;12.70;;;9.10;99.90;;;;;;6129188;23;20878;-64
2021/11/10 07:59:25;;;;;;;15.77;14.13;;;10.00;99.90;;;;;;6129407;23;20417;-65
2021/11/10 08:01:52;;;;;;;15.07;12.60;;;10.80;99.90;;;;;;6131869;23;20456;-65
2021/11/10 08:04:18;;;;;;;13.47;12.07;;;11.40;99.90;;;;;;6135185;23;20423;-62
2021/11/10 08:06:45;;;;;;;17.67;14.93;;;12.00;99.90;;;;;;6131229;23;20749;-65
2021/11/10 08:09:12;;;;;;;14.40;12.93;;;12.30;99.90;;;;;;6128992;23;20746;-64
2021/11/10 08:11:40;;;;;;;14.20;12.80;;;12.70;99.90;;;;;;6129453;23;20441;-64
2021/11/10 08:14:08;;;;;;;15.10;12.80;;;13.10;99.90;;;;;;6129534;23;20440;-65
2021/11/10 08:16:35;;;;;;;14.30;12.90;;;13.30;99.40;;;;;;6129240;23;20439;-64
2021/11/10 08:19:02;;;;;;;15.67;13.63;;;13.40;99.30;;;;;;6135833;23;20417;-63
2021/11/10 08:21:29;;;;;;;15.57;13.63;;;13.40;98.30;;;;;;6129579;23;20437;-65
2021/11/10 08:23:56;;;;;;;14.70;13.30;;;12.80;97.80;;;;;;6129388;23;20423;-65
2021/11/10 08:26:22;;;;;;;14.70;13.17;;;12.70;99.10;;;;;;6130262;23;20508;-64
2021/11/10 08:28:51;;;;;;;15.17;13.20;;;13.00;98.40;;;;;;6129002;23;20418;-65
2021/11/10 08:31:17;;;;;;;16.27;14.67;;;12.90;97.90;;;;;;6128598;23;20938;-65
2021/11/10 08:33:44;;;;;;;16.93;13.60;;;12.60;97.80;;;;;;6128682;23;20413;-65
2021/11/10 08:36:11;;;;;;;17.30;15.53;;;12.20;99.00;;;;;;6129820;23;20418;-65
2021/11/10 08:38:38;;;;;;;17.07;14.80;;;11.80;99.90;;;;;;6130401;23;20902;-65
2021/11/10 08:41:04;;;;;;;19.67;14.80;;;11.20;99.90;;;;;;6146087;23;20433;-65
2021/11/10 08:43:31;;;;;;;16.73;14.87;;;11.20;99.90;;;;;;6142110;23;20453;-65
2021/11/10 08:46:00;;;;;;;17.40;14.33;;;11.10;99.90;;;;;;6129883;23;20430;-65
2021/11/10 08:48:27;;;;;;;17.80;15.10;;;10.90;99.90;;;;;;6128628;23;20802;-65
2021/11/10 08:50:56;;;;;;;21.97;15.77;;;10.60;99.90;;;;;;6128828;23;20444;-64
2021/11/10 08:53:23;;;;;;;17.37;14.43;;;10.40;99.90;;;;;;6128568;23;20452;-64
2021/11/10 08:55:52;;;;;;;17.60;14.80;;;10.30;99.90;;;;;;6128675;23;20756;-65
2021/11/10 08:58:19;;;;;;;16.57;14.90;;;10.20;99.90;;;;;;6128696;23;20425;-64
2021/11/10 09:00:47;;;;;;;17.83;15.17;;;10.40;99.90;;;;;;6128466;23;20760;-65
2021/11/10 09:03:15;;;;;;;17.53;15.23;;;10.70;99.90;;;;;;6130239;23;20944;-65
2021/11/10 09:05:42;;;;;;;24.10;15.90;;;10.10;99.90;;;;;;6130799;23;20422;-64
2021/11/10 09:08:09;;;;;;;20.27;16.73;;;9.70;99.90;;;;;;6132501;23;20406;-64
2021/11/10 09:10:36;;;;;;;19.97;16.03;;;9.70;99.90;;;;;;6130719;23;20436;-64
2021/11/10 09:13:04;;;;;;;21.03;16.00;;;9.60;99.90;;;;;;6129456;23;20397;-64
2021/11/10 09:15:33;;;;;;;22.30;17.70;;;9.50;99.90;;;;;;6128740;23;20512;-65
2021/11/10 09:18:01;;;;;;;19.57;17.57;;;9.30;99.90;;;;;;6128958;23;20425;-63
2021/11/10 09:20:32;;;;;;;17.93;16.03;;;9.00;99.90;;;;;;6131336;23;20521;-64
2021/11/10 09:23:00;;;;;;;23.23;17.30;;;8.80;99.90;;;;;;6128966;23;20436;-64
2021/11/10 09:25:29;;;;;;;18.97;17.00;;;8.60;99.90;;;;;;6129069;23;20418;-65
2021/11/10 09:27:58;;;;;;;20.60;17.90;;;8.40;99.90;;;;;;6141618;23;20428;-65
2021/11/10 09:30:27;;;;;;;22.77;17.90;;;8.30;99.90;;;;;;6139380;23;21043;-65
2021/11/10 09:32:55;;;;;;;22.73;17.07;;;8.20;99.90;;;;;;6129179;23;20413;-65
2021/11/10 09:35:23;;;;;;;20.03;17.77;;;8.10;99.90;;;;;;6128172;23;20914;-65
2021/11/10 09:37:52;;;;;;;24.93;18.13;;;8.00;99.90;;;;;;6128214;23;20925;-64
2021/11/10 09:40:21;;;;;;;24.10;18.10;;;7.90;99.90;;;;;;6128405;23;20421;-65
2021/11/10 09:42:49;;;;;;;26.60;18.60;;;7.80;99.90;;;;;;6128082;23;20976;-65
2021/11/10 09:45:19;;;;;;;21.70;17.13;;;7.80;99.90;;;;;;6127882;23;20418;-64
2021/11/10 09:47:47;;;;;;;22.93;18.00;;;7.80;99.90;;;;;;6128516;23;20418;-65
2021/11/10 09:50:16;;;;;;;26.50;18.00;;;7.90;99.90;;;;;;6128206;23;20907;-66
2021/11/10 09:52:45;;;;;;;26.33;19.30;;;7.80;99.90;;;;;;6128509;23;20421;-65
2021/11/10 09:55:17;;;;;;;22.07;17.43;;;7.80;99.90;;;;;;6128265;23;20483;-64
2021/11/10 09:57:44;;;;;;;27.47;20.80;;;7.60;99.90;;;;;;6129381;23;20410;-65
2021/11/10 10:00:14;;;;;;;25.50;19.60;;;7.40;99.90;;;;;;6128934;23;20420;-64
2021/11/10 10:02:44;;;;;;;25.43;19.40;;;7.30;99.90;;;;;;6128493;23;20487;-65
2021/11/10 10:05:12;;;;;;;25.83;18.57;;;7.30;99.90;;;;;;6135236;23;20453;-65
2021/11/10 10:07:40;;;;;;;23.73;19.00;;;7.30;99.90;;;;;;6129015;23;20425;-66
2021/11/10 10:10:07;;;;;;;24.13;19.97;;;7.30;99.90;;;;;;6129482;23;20425;-65
2021/11/10 10:12:35;;;;;;;26.90;19.90;;;7.30;99.90;;;;;;6145898;23;20422;-65
2021/11/10 10:15:02;;;;;;;27.50;19.10;;;7.30;99.90;;;;;;6150748;23;20413;-65
2021/11/10 10:17:34;;;;;;;21.00;18.07;;;7.50;99.90;;;;;;6138678;23;20442;-64
2021/11/10 10:20:01;;;;;;;24.33;18.10;;;7.50;99.90;;;;;;6128086;23;20413;-64
2021/11/10 10:22:28;;;;;;;23.47;19.20;;;7.60;99.90;;;;;;6127984;23;20441;-65
2021/11/10 10:24:57;;;;;;;24.97;19.40;;;7.70;99.90;;;;;;6128187;23;20452;-64
2021/11/10 10:27:26;;;;;;;24.33;19.10;;;7.70;99.90;;;;;;6128126;23;20424;-66
2021/11/10 10:30:32;;;;;;;25.53;18.57;;;7.60;99.90;;;;;;6127830;23;20424;-65
2021/11/10 10:33:01;;;;;;;25.50;19.60;;;7.60;99.90;;;;;;6129563;23;20413;-64
2021/11/10 10:35:34;;;;;;;24.03;19.50;;;7.70;99.90;;;;;;6129753;23;20417;-64
2021/11/10 10:38:01;;;;;;;24.83;18.87;;;7.50;99.90;;;;;;6128923;23;20405;-64
2021/11/10 10:40:30;;;;;;;21.60;19.10;;;7.50;99.90;;;;;;6127923;23;20436;-64
2021/11/10 10:42:56;;;;;;;19.83;17.70;;;7.50;99.90;;;;;;6128141;23;20438;-64
2021/11/10 10:45:28;;;;;;;24.40;21.10;;;7.60;99.90;;;;;;6128263;23;20444;-64
2021/11/10 10:47:58;;;;;;;23.17;18.40;;;7.70;99.90;;;;;;6128839;23;20418;-64
2021/11/10 10:50:33;;;;;;;25.67;18.50;;;7.90;99.90;;;;;;6134331;23;20417;-64
2021/11/10 10:53:00;;;;;;;21.20;17.83;;;8.10;99.90;;;;;;6127853;23;20764;-64
2021/11/10 10:55:39;;;;;;;21.80;18.53;;;8.40;99.90;;;;;;6128176;23;20453;-65
2021/11/10 10:58:08;;;;;;;25.57;19.10;;;8.60;99.90;;;;;;6130071;23;20903;-65
2021/11/10 11:00:37;;;;;;;23.37;19.27;;;8.90;99.90;;;;;;6127746;23;20551;-65
2021/11/10 11:03:33;;;;;;;22.50;19.50;;;9.00;99.90;;;;;;6128433;23;20429;-64
2021/11/10 11:06:00;;;;;;;24.60;19.00;;;9.20;99.90;;;;;;6136297;23;20726;-64
2021/11/10 11:08:35;;;;;;;22.70;20.40;;;9.40;99.90;;;;;;6128878;23;20449;-65
2021/11/10 11:11:18;;;;;;;23.93;18.87;;;9.50;99.90;;;;;;6127940;23;20439;-65
2021/11/10 11:13:53;;;;;;;20.27;18.00;;;9.60;99.90;;;;;;6134754;23;20398;-64
2021/11/10 11:16:27;;;;;;;22.60;18.90;;;9.70;99.90;;;;;;6139787;23;20400;-64
2021/11/10 11:21:54;;;;;;;27.47;20.07;;;9.80;99.90;;;;;;5094205;28;20547;-65
2021/11/10 11:24:41;;;;;;;25.40;19.20;;;9.90;99.90;;;;;;5092012;28;20441;-64
2021/11/10 11:27:31;;;;;;;23.60;19.10;;;10.10;99.90;;;;;;5091977;28;20455;-65
2021/11/10 11:30:11;;;;;;;22.93;19.53;;;10.20;99.90;;;;;;5076719;28;20458;-64
2021/11/10 11:32:40;;;;;;;21.87;19.00;;;10.10;99.90;;;;;;5092719;28;20473;-64
2021/11/10 11:35:11;;;;;;;21.03;18.87;;;10.10;99.90;;;;;;5098429;28;20454;-64
2021/11/10 11:37:41;;;;;;;24.93;19.57;;;10.30;99.90;;;;;;5092430;28;20483;-64
2021/11/10 11:40:11;;;;;;;25.50;19.67;;;10.10;99.90;;;;;;5091869;28;20473;-65
2021/11/10 11:42:38;;;;;;;23.80;20.30;;;10.20;99.90;;;;;;5091594;28;20481;-65
2021/11/10 11:45:06;;;;;;;24.97;18.93;;;10.20;99.90;;;;;;5091589;28;20548;-64
2021/11/10 11:47:33;;;;;;;22.17;18.53;;;10.40;99.90;;;;;;5105215;28;20450;-64
2021/11/10 11:50:03;;;;;;;27.60;20.80;;;10.40;99.90;;;;;;5096634;28;20449;-66
2021/11/10 11:52:32;;;;;;;22.17;19.20;;;10.40;99.90;;;;;;5094334;28;20469;-65
2021/11/10 11:55:07;;;;;;;25.60;18.83;;;10.40;99.90;;;;;;5092907;28;20446;-64
2021/11/10 11:57:35;;;;;;;29.20;19.80;;;10.30;99.90;;;;;;5092158;28;20456;-64
2021/11/10 12:00:02;;;;;;;22.00;19.80;;;10.30;99.90;;;;;;5091300;28;20478;-65
2021/11/10 12:02:37;;;;;;;26.87;20.67;;;10.30;99.90;;;;;;5091116;28;20480;-65
2021/11/10 12:05:13;;;;;;;23.70;20.87;;;10.50;99.90;;;;;;5091737;28;20525;-65
2021/11/10 12:07:43;;;;;;;24.63;19.93;;;10.60;99.90;;;;;;5094700;28;20442;-64
2021/11/10 12:10:44;;;;;;;24.83;20.47;;;10.60;99.90;;;;;;5097165;28;20450;-65
2021/11/10 12:13:23;;;;;;;21.93;19.70;;;10.70;99.90;;;;;;5103694;28;20873;-66
2021/11/10 12:16:15;;;;;;;27.23;23.17;;;10.70;99.90;;;;;;5103999;28;20430;-65
2021/11/10 12:18:55;;;;;;;26.20;22.20;;;10.70;99.90;;;;;;5100329;28;20492;-65
2021/11/10 12:21:31;;;;;;;28.17;22.87;;;10.70;99.90;;;;;;5093465;28;20487;-64
2021/11/10 12:24:13;;;;;;;29.33;23.60;;;10.50;99.90;;;;;;5092101;28;20834;-65
2021/11/10 12:27:14;;;;;;;23.83;21.03;;;10.50;99.90;;;;;;5091748;28;20487;-67
2021/11/10 12:30:08;;;;;;;29.53;21.67;;;10.80;99.90;;;;;;5091952;28;20454;-67
2021/11/10 12:32:53;;;;;;;28.23;22.17;;;11.10;99.90;;;;;;5067526;28;20489;-67
2021/11/10 12:35:25;;;;;;;23.80;21.00;;;11.10;99.90;;;;;;5079028;28;20434;-67
2021/11/10 12:37:55;;;;;;;26.97;21.20;;;11.10;99.90;;;;;;5084034;28;20431;-67
2021/11/10 12:40:25;;;;;;;23.90;19.53;;;11.30;99.90;;;;;;5079046;28;20483;-67
2021/11/10 12:42:58;;;;;;;24.83;20.50;;;11.40;99.90;;;;;;5079045;28;20909;-67
2021/11/10 12:45:30;;;;;;;23.10;20.20;;;11.20;99.90;;;;;;5079813;28;20459;-67
2021/11/10 12:47:59;;;;;;;29.80;21.83;;;11.10;99.90;;;;;;5079505;28;20442;-67
2021/11/10 12:50:33;;;;;;;23.53;20.77;;;11.30;99.90;;;;;;5078820;28;20447;-66
2021/11/10 12:53:01;;;;;;;24.07;21.50;;;11.40;99.90;;;;;;5078789;28;20446;-65
2021/11/10 12:55:30;;;;;;;22.40;19.60;;;11.50;99.90;;;;;;5078885;28;20455;-64
2021/11/10 12:58:00;;;;;;;24.90;21.47;;;11.50;99.90;;;;;;5079243;28;20462;-65
2021/11/10 13:00:30;;;;;;;24.60;20.57;;;11.50;99.90;;;;;;5079121;28;20463;-65
2021/11/10 13:02:57;;;;;;;27.47;20.97;;;11.60;99.90;;;;;;5082460;28;20457;-65
2021/11/10 13:05:28;;;;;;;22.90;20.03;;;11.50;99.90;;;;;;5088994;28;20450;-65
2021/11/10 13:08:08;;;;;;;21.80;19.33;;;11.60;99.90;;;;;;5078487;28;20463;-64
2021/11/10 13:10:35;;;;;;;25.37;19.70;;;11.60;99.90;;;;;;5078320;28;20456;-64
2021/11/10 13:13:13;;;;;;;21.57;19.27;;;11.60;99.90;;;;;;5077873;28;20473;-64
2021/11/10 13:15:41;;;;;;;22.10;19.73;;;11.70;99.90;;;;;;5077698;28;20439;-65
2021/11/10 13:18:17;;;;;;;21.93;19.10;;;11.70;99.90;;;;;;5077517;28;20451;-64
2021/11/10 13:20:44;;;;;;;20.90;18.70;;;11.60;99.90;;;;;;5085449;28;20484;-65
2021/11/10 13:23:11;;;;;;;26.40;19.87;;;11.70;99.90;;;;;;5094983;28;20446;-64
2021/11/10 13:25:38;;;;;;;22.30;20.00;;;11.60;99.90;;;;;;5079270;28;20942;-65
2021/11/10 13:28:06;;;;;;;25.33;19.90;;;11.50;99.90;;;;;;5077294;28;20451;-65
2021/11/10 13:30:38;;;;;;;24.90;20.33;;;11.50;99.90;;;;;;5076513;28;20533;-64
2021/11/10 13:33:21;;;;;;;25.70;19.73;;;11.60;99.90;;;;;;5076737;28;20852;-65
2021/11/10 13:35:57;;;;;;;22.97;18.97;;;11.60;99.90;;;;;;5082157;28;20446;-64
2021/11/10 13:38:40;;;;;;;24.60;20.23;;;11.50;99.90;;;;;;5076660;28;20450;-65
2021/11/10 13:41:19;;;;;;;22.20;19.10;;;11.60;99.90;;;;;;5076208;28;20983;-65
2021/11/10 13:43:48;;;;;;;23.17;18.70;;;11.50;99.90;;;;;;5075309;28;20434;-64
2021/11/10 13:46:18;;;;;;;24.40;20.73;;;11.60;99.90;;;;;;5076541;28;20486;-64
2021/11/10 13:48:45;;;;;;;24.73;19.43;;;11.50;99.90;;;;;;5077240;28;20910;-63
2021/11/10 13:51:12;;;;;;;25.33;21.23;;;11.30;99.90;;;;;;5080089;28;20473;-64
2021/11/10 13:53:39;;;;;;;23.57;20.57;;;11.30;99.90;;;;;;5076409;28;20458;-64
2021/11/10 13:56:06;;;;;;;35.03;23.77;;;11.20;99.90;;;;;;5076716;28;20858;-64
2021/11/10 13:58:33;;;;;;;34.33;22.13;;;11.30;99.90;;;;;;5076181;28;20457;-64
2021/11/10 14:01:03;;;;;;;24.80;20.80;;;11.20;99.90;;;;;;5076121;28;20485;-65
2021/11/10 14:03:31;;;;;;;24.90;20.70;;;11.20;99.90;;;;;;5077251;28;20449;-64
2021/11/10 14:05:58;;;;;;;23.90;20.23;;;11.10;99.90;;;;;;5076295;28;20459;-66
2021/11/10 14:08:25;;;;;;;23.67;19.50;;;10.90;99.90;;;;;;5075750;28;20454;-64
2021/11/10 14:10:57;;;;;;;21.07;18.83;;;10.70;99.90;;;;;;5076205;28;20466;-64
2021/11/10 14:13:24;;;;;;;20.97;18.20;;;10.80;99.90;;;;;;5075966;28;20435;-63
2021/11/10 14:15:51;;;;;;;21.77;16.73;;;10.80;99.90;;;;;;5075797;28;20457;-65
2021/11/10 14:18:19;;;;;;;25.77;18.10;;;10.80;99.90;;;;;;5075729;28;20435;-65
2021/11/10 14:20:50;;;;;;;18.97;16.67;;;10.80;99.90;;;;;;5075620;28;20494;-66
2021/11/10 14:23:22;;;;;;;21.40;17.83;;;10.80;99.90;;;;;;5075420;28;20902;-64
2021/11/10 14:25:51;;;;;;;22.63;17.20;;;10.80;99.90;;;;;;5075545;28;20449;-64
2021/11/10 14:28:19;;;;;;;20.77;18.33;;;10.70;99.90;;;;;;5075231;28;20805;-65
2021/11/10 14:30:48;;;;;;;21.30;18.27;;;10.70;99.90;;;;;;5075701;28;20470;-64
2021/11/10 14:33:18;;;;;;;19.73;17.73;;;10.70;99.90;;;;;;5076046;28;20458;-64
2021/11/10 14:35:48;;;;;;;27.27;18.27;;;10.70;99.90;;;;;;5076095;28;20454;-64
2021/11/10 14:38:17;;;;;;;20.30;17.83;;;10.70;99.90;;;;;;5075548;28;20447;-64
2021/11/10 14:40:49;;;;;;;22.63;18.60;;;10.60;99.90;;;;;;5075748;28;20479;-65
2021/11/10 14:43:32;;;;;;;21.80;18.20;;;10.50;99.90;;;;;;5075939;28;20449;-64
2021/11/10 14:46:05;;;;;;;22.47;19.20;;;10.50;99.90;;;;;;5075849;28;20439;-65
2021/11/10 14:48:33;;;;;;;24.30;18.27;;;10.40;99.90;;;;;;5076063;28;20810;-65
2021/11/10 14:51:03;;;;;;;24.30;19.20;;;10.40;99.90;;;;;;5075503;28;20477;-66
2021/11/10 14:53:30;;;;;;;21.50;18.37;;;10.40;99.90;;;;;;5084143;28;20454;-65
2021/11/10 14:56:09;;;;;;;20.87;18.77;;;10.40;99.90;;;;;;5083329;28;20447;-65
2021/11/10 14:58:36;;;;;;;23.70;18.53;;;10.40;99.90;;;;;;5079507;28;20464;-65
2021/11/10 15:01:10;;;;;;;24.57;19.07;;;10.30;99.90;;;;;;5075345;28;20482;-65
2021/11/10 15:03:45;;;;;;;22.13;17.10;;;10.20;99.90;;;;;;5086694;28;20430;-65
2021/11/10 15:06:28;;;;;;;27.40;19.00;;;10.20;99.90;;;;;;5091582;28;20433;-65
2021/11/10 15:08:56;;;;;;;20.30;17.67;;;10.20;99.90;;;;;;5078930;28;20447;-66
2021/11/10 15:11:23;;;;;;;21.30;19.10;;;10.10;99.90;;;;;;5074735;28;20466;-65
2021/11/10 15:13:50;;;;;;;21.60;18.27;;;9.90;99.90;;;;;;5074836;28;20447;-65
2021/11/10 15:16:18;;;;;;;24.00;18.03;;;9.90;99.90;;;;;;5075126;28;20450;-64
2021/11/10 15:18:45;;;;;;;21.47;18.43;;;10.00;99.90;;;;;;5075551;28;20461;-64
2021/11/10 15:21:14;;;;;;;28.07;18.80;;;9.90;99.90;;;;;;5086391;28;20458;-65
2021/11/10 15:23:44;;;;;;;23.00;18.80;;;9.90;99.90;;;;;;5092973;28;20445;-65
2021/11/10 15:26:12;;;;;;;22.77;19.00;;;9.80;99.90;;;;;;5090984;28;20787;-65
2021/11/10 15:28:40;;;;;;;23.90;18.67;;;9.70;99.90;;;;;;5089165;28;20453;-65
2021/11/10 15:31:11;;;;;;;23.13;18.63;;;9.70;99.90;;;;;;5089899;28;20478;-65
2021/11/10 15:33:38;;;;;;;21.73;18.13;;;9.60;99.90;;;;;;5091633;28;20474;-65
2021/11/10 15:36:08;;;;;;;23.80;18.60;;;9.60;99.90;;;;;;5091565;28;20447;-67
2021/11/10 15:38:36;;;;;;;23.63;17.97;;;9.60;99.90;;;;;;5092600;28;20443;-66
2021/11/10 15:41:07;;;;;;;24.00;18.87;;;9.50;99.90;;;;;;5090771;28;20483;-66
2021/11/10 15:43:35;;;;;;;20.47;17.33;;;9.40;99.90;;;;;;5091811;28;20431;-66
2021/11/10 15:46:06;;;;;;;21.90;18.10;;;9.40;99.90;;;;;;5090937;28;20450;-66
2021/11/10 15:48:33;;;;;;;21.53;16.80;;;9.30;99.90;;;;;;5085749;28;20451;-66
2021/11/10 15:51:00;;;;;;;19.53;17.43;;;9.20;99.90;;;;;;5081019;28;20473;-66
2021/11/10 15:53:29;;;;;;;23.37;18.10;;;9.10;99.90;;;;;;5080039;28;20491;-66
2021/11/10 15:55:56;;;;;;;23.43;17.20;;;9.10;99.90;;;;;;5075004;28;20511;-65
2021/11/10 15:58:25;;;;;;;22.10;17.80;;;9.00;99.90;;;;;;5074587;28;20454;-66
2021/11/10 16:00:53;;;;;;;24.23;19.27;;;9.00;99.90;;;;;;5074481;28;20468;-65
2021/11/10 16:03:23;;;;;;;20.60;16.77;;;8.90;99.90;;;;;;5074620;28;20572;-66
2021/11/10 16:05:51;;;;;;;18.53;15.83;;;8.80;99.90;;;;;;5074740;28;20518;-66
2021/11/10 16:08:18;;;;;;;21.10;17.60;;;8.70;99.90;;;;;;5081040;28;20455;-66
2021/11/10 16:10:47;;;;;;;25.60;18.40;;;8.70;99.90;;;;;;5098298;28;20470;-66
2021/11/10 16:13:15;;;;;;;20.10;18.00;;;8.60;99.90;;;;;;5098213;28;20510;-66
2021/11/10 16:15:44;;;;;;;23.70;17.70;;;8.60;99.90;;;;;;5095828;28;20457;-67
2021/11/10 16:18:12;;;;;;;30.03;19.60;;;8.50;99.90;;;;;;5078761;28;20858;-65
2021/11/10 16:20:39;;;;;;;21.33;17.90;;;8.40;99.90;;;;;;5078432;28;21016;-65
2021/11/10 16:23:08;;;;;;;27.17;22.97;;;8.40;99.90;;;;;;5077860;28;20481;-65
2021/11/10 16:25:35;;;;;;;28.70;22.07;;;8.30;99.90;;;;;;5080809;28;20457;-64
2021/11/10 16:28:04;;;;;;;29.13;22.80;;;8.30;99.90;;;;;;5095768;28;20453;-67
2021/11/10 16:30:45;;;;;;;32.03;23.93;;;8.20;99.90;;;;;;5092145;28;20814;-67
2021/11/10 16:33:13;;;;;;;30.70;23.67;;;8.20;99.90;;;;;;5086619;28;20441;-67
2021/11/10 16:35:44;;;;;;;32.37;23.17;;;8.00;99.90;;;;;;5088982;28;20456;-65
2021/11/10 16:38:12;;;;;;;28.93;22.73;;;8.00;99.90;;;;;;5094298;28;20441;-66
2021/11/10 16:40:39;;;;;;;23.97;19.90;;;7.90;99.90;;;;;;5093633;28;20467;-66
2021/11/10 16:43:06;;;;;;;25.10;20.20;;;7.90;99.90;;;;;;5099356;28;20474;-66
2021/11/10 16:45:33;;;;;;;26.07;20.00;;;7.80;99.90;;;;;;5089823;28;20820;-66
2021/11/10 16:48:00;;;;;;;24.23;21.13;;;7.70;99.90;;;;;;5088943;28;20839;-66
2021/11/10 16:50:29;;;;;;;27.27;20.70;;;7.70;99.90;;;;;;5079347;28;20450;-66
2021/11/10 16:52:56;;;;;;;23.83;19.87;;;7.70;99.90;;;;;;5079196;28;20457;-73
2021/11/10 16:55:24;;;;;;;28.10;20.40;;;7.70;99.90;;;;;;5077733;28;20541;-66
2021/11/10 16:57:51;;;;;;;23.80;20.20;;;7.60;99.90;;;;;;5077208;28;20490;-67
2021/11/10 17:00:22;;;;;;;28.33;19.97;;;7.60;99.90;;;;;;5085384;28;20450;-66
2021/11/10 17:02:49;;;;;;;25.80;20.53;;;7.50;99.90;;;;;;5085078;28;20529;-66
2021/11/10 17:05:16;;;;;;;26.03;21.97;;;7.50;99.90;;;;;;5079928;28;20454;-65
2021/11/10 17:07:44;;;;;;;29.47;21.63;;;7.40;99.90;;;;;;5080331;28;20457;-67
2021/11/10 17:10:11;;;;;;;26.73;20.53;;;7.40;99.90;;;;;;5078024;28;20459;-67
2021/11/10 17:12:40;;;;;;;28.10;21.20;;;7.40;99.90;;;;;;5077003;28;20477;-66
2021/11/10 17:15:09;;;;;;;30.17;22.23;;;7.30;99.90;;;;;;5076555;28;20822;-69
2021/11/10 17:17:36;;;;;;;34.30;22.67;;;7.30;99.90;;;;;;5077861;28;20455;-64
2021/11/10 17:20:04;;;;;;;37.03;25.80;;;7.30;99.90;;;;;;5076820;28;20469;-65
2021/11/10 17:22:31;;;;;;;33.93;25.63;;;7.30;99.90;;;;;;5076702;28;20490;-64
2021/11/10 17:24:59;;;;;;;38.70;27.37;;;7.40;99.90;;;;;;5078968;28;20446;-65
2021/11/10 17:27:26;;;;;;;37.80;25.10;;;7.40;99.90;;;;;;5098253;28;20526;-66
2021/11/10 17:29:53;;;;;;;34.27;25.17;;;7.40;99.90;;;;;;5098385;28;20439;-65
2021/11/10 17:32:20;;;;;;;38.07;25.60;;;7.40;99.90;;;;;;5086100;28;20468;-66
2021/11/10 17:34:47;;;;;;;33.63;26.30;;;7.40;99.90;;;;;;5076737;28;20457;-67
2021/11/10 17:37:16;;;;;;;38.73;27.00;;;7.40;99.90;;;;;;5076465;28;20924;-66
2021/11/10 17:39:43;;;;;;;36.20;25.50;;;7.40;99.90;;;;;;5077437;28;20945;-66
2021/11/10 17:42:14;;;;;;;34.90;25.70;;;7.40;99.90;;;;;;5076763;28;20474;-66
2021/11/10 17:44:42;;;;;;;36.27;25.50;;;7.40;99.90;;;;;;5078496;28;20453;-68
2021/11/10 17:47:09;;;;;;;35.23;26.30;;;7.30;99.90;;;;;;5078936;28;20445;-66
2021/11/10 17:49:36;;;;;;;45.03;32.07;;;7.30;99.90;;;;;;5081654;28;20450;-67